createdAt,value
2022-09-16T00:01:50.682Z,100.00
2022-09-16T00:04:17.852Z,100.00
2022-09-16T00:06:44.286Z,100.00
2022-09-16T00:09:10.752Z,100.00
2022-09-16T00:11:37.266Z,100.00
2022-09-16T00:14:04.452Z,99.99
2022-09-16T00:16:31.064Z,100.00
2022-09-16T00:19:00.795Z,100.00
2022-09-16T00:21:28.834Z,100.00
2022-09-16T00:23:56.452Z,100.00
2022-09-16T00:26:23.526Z,100.00
2022-09-16T00:28:50.810Z,100.00
2022-09-16T00:31:18.212Z,99.96
2022-09-16T00:33:44.945Z,97.61
2022-09-16T00:36:12.997Z,97.32
2022-09-16T00:38:40.502Z,97.23
2022-09-16T00:41:08.041Z,98.12
2022-09-16T00:43:53.037Z,98.64
2022-09-16T00:46:26.084Z,97.81
2022-09-16T00:48:53.017Z,96.75
2022-09-16T00:51:21.094Z,96.30
2022-09-16T00:53:56.919Z,97.02
2022-09-16T00:56:26.532Z,96.71
2022-09-16T00:59:03.327Z,95.20
2022-09-16T01:01:31.236Z,94.70
2022-09-16T01:04:03.169Z,95.87
2022-09-16T01:06:31.008Z,95.37
2022-09-16T01:08:57.891Z,97.04
2022-09-16T01:11:24.667Z,97.96
2022-09-16T01:13:52.079Z,98.66
2022-09-16T01:16:34.293Z,98.99
2022-09-16T01:19:20.852Z,99.32
2022-09-16T01:22:17.189Z,99.36
2022-09-16T01:24:58.239Z,98.94
2022-09-16T01:27:47.630Z,99.48
2022-09-16T01:30:17.164Z,99.40
2022-09-16T01:32:56.100Z,99.97
2022-09-16T01:35:47.220Z,100.00
2022-09-16T01:38:33.897Z,100.00
2022-09-16T01:41:21.469Z,100.00
2022-09-16T01:44:18.714Z,100.00
2022-09-16T01:47:04.794Z,100.00
2022-09-16T01:49:42.906Z,100.00
2022-09-16T01:52:15.766Z,100.00
2022-09-16T01:55:01.472Z,100.00
2022-09-16T01:57:52.751Z,100.00
2022-09-16T02:00:20.242Z,99.52
2022-09-16T02:03:04.885Z,99.62
2022-09-16T02:05:55.340Z,99.64
2022-09-16T02:08:31.256Z,100.00
2022-09-16T02:11:02.422Z,100.00
2022-09-16T02:13:39.786Z,99.24
2022-09-16T02:16:12.423Z,99.09
2022-09-16T02:18:42.124Z,100.00
2022-09-16T02:21:14.504Z,100.00
2022-09-16T02:23:46.801Z,100.00
2022-09-16T02:26:18.767Z,100.00
2022-09-16T02:28:48.505Z,100.00
2022-09-16T02:31:15.834Z,100.00
2022-09-16T02:33:46.922Z,99.77
2022-09-16T02:36:20.926Z,99.78
2022-09-16T02:38:53.629Z,100.00
2022-09-16T02:41:20.317Z,100.00
2022-09-16T02:43:46.756Z,99.43
2022-09-16T02:46:21.962Z,97.92
2022-09-16T02:49:00.354Z,97.30
2022-09-16T02:51:35.756Z,97.11
2022-09-16T02:54:02.285Z,96.59
2022-09-16T02:56:38.511Z,96.78
2022-09-16T02:59:07.021Z,98.38
2022-09-16T03:01:46.110Z,98.19
2022-09-16T03:04:15.660Z,98.35
2022-09-16T03:06:42.338Z,98.61
2022-09-16T03:09:12.309Z,99.53
2022-09-16T03:12:03.001Z,99.21
2022-09-16T03:14:53.013Z,100.00
2022-09-16T03:17:37.424Z,100.00
2022-09-16T03:20:16.425Z,100.00
2022-09-16T03:23:03.377Z,100.00
2022-09-16T03:26:01.984Z,99.33
2022-09-16T03:28:51.211Z,99.66
2022-09-16T03:31:46.573Z,100.00
2022-09-16T03:34:21.159Z,100.00
2022-09-16T03:36:52.921Z,99.74
2022-09-16T03:39:20.102Z,99.50
2022-09-16T03:41:46.581Z,99.83
2022-09-16T03:44:12.981Z,99.95
2022-09-16T03:46:39.484Z,99.66
2022-09-16T03:49:06.042Z,100.00
2022-09-16T03:51:32.466Z,99.52
2022-09-16T03:53:58.950Z,99.18
2022-09-16T03:56:25.620Z,99.38
2022-09-16T03:58:52.429Z,99.73
2022-09-16T04:01:19.032Z,99.27
2022-09-16T04:03:45.606Z,99.07
2022-09-16T04:06:12.022Z,99.21
2022-09-16T04:08:39.685Z,99.50
2022-09-16T04:11:07.215Z,98.68
2022-09-16T04:13:35.183Z,98.36
2022-09-16T04:16:03.128Z,98.70
2022-09-16T04:18:34.641Z,99.04
2022-09-16T04:21:02.800Z,99.66
2022-09-16T04:23:31.013Z,98.88
2022-09-16T04:25:59.666Z,99.05
2022-09-16T04:28:26.873Z,98.79
2022-09-16T04:30:53.864Z,98.96
2022-09-16T04:33:20.412Z,98.87
2022-09-16T04:35:46.813Z,98.32
2022-09-16T04:38:13.252Z,98.42
2022-09-16T04:40:40.054Z,99.29
2022-09-16T04:43:06.534Z,98.64
2022-09-16T04:45:32.978Z,97.67
2022-09-16T04:47:59.399Z,97.97
2022-09-16T04:50:25.899Z,98.12
2022-09-16T04:52:52.662Z,98.89
2022-09-16T04:55:19.130Z,99.72
2022-09-16T04:57:45.554Z,100.00
2022-09-16T05:00:12.486Z,100.00
2022-09-16T05:02:38.909Z,100.00
2022-09-16T05:05:05.713Z,100.00
2022-09-16T05:07:32.122Z,100.00
2022-09-16T05:09:58.593Z,100.00
2022-09-16T05:12:25.032Z,100.00
2022-09-16T05:14:51.489Z,100.00
2022-09-16T05:17:39.427Z,100.00
2022-09-16T05:20:04.624Z,100.00
2022-09-16T05:22:31.098Z,100.00
2022-09-16T05:24:57.497Z,100.00
2022-09-16T05:27:24.123Z,100.00
2022-09-16T05:29:50.541Z,100.00
2022-09-16T05:32:17.446Z,100.00
2022-09-16T05:34:43.862Z,100.00
2022-09-16T05:37:10.309Z,100.00
2022-09-16T05:39:36.691Z,100.00
2022-09-16T05:42:04.665Z,100.00
2022-09-16T05:44:31.150Z,100.00
2022-09-16T05:46:57.646Z,100.00
2022-09-16T05:49:24.630Z,100.00
2022-09-16T05:51:52.234Z,100.00
2022-09-16T05:54:19.240Z,100.00
2022-09-16T05:56:46.856Z,100.00
2022-09-16T05:59:14.526Z,100.00
2022-09-16T06:01:41.166Z,99.71
2022-09-16T06:04:11.221Z,98.62
2022-09-16T06:06:43.059Z,97.31
2022-09-16T06:09:12.678Z,95.67
2022-09-16T06:11:41.856Z,94.77
2022-09-16T06:14:09.580Z,94.43
2022-09-16T06:16:36.862Z,93.37
2022-09-16T06:19:07.161Z,93.25
2022-09-16T06:21:33.611Z,93.14
2022-09-16T06:24:00.236Z,93.87
2022-09-16T06:26:27.643Z,92.96
2022-09-16T06:28:55.027Z,91.56
2022-09-16T06:31:22.969Z,91.09
2022-09-16T06:33:50.580Z,90.05
2022-09-16T06:36:20.199Z,90.78
2022-09-16T06:38:47.425Z,91.44
2022-09-16T06:41:16.261Z,90.63
2022-09-16T06:43:44.036Z,93.42
2022-09-16T06:46:19.063Z,93.71
2022-09-16T06:48:50.939Z,93.10
2022-09-16T06:51:22.689Z,92.83
2022-09-16T06:53:50.010Z,90.94
2022-09-16T06:56:19.511Z,90.46
2022-09-16T06:58:48.171Z,88.91
2022-09-16T07:01:17.662Z,87.90
2022-09-16T07:03:47.027Z,88.10
2022-09-16T07:06:14.966Z,86.46
2022-09-16T07:08:42.373Z,88.86
2022-09-16T07:11:13.662Z,86.06
2022-09-16T07:13:40.497Z,88.14
2022-09-16T07:16:14.039Z,87.86
2022-09-16T07:18:41.931Z,89.66
2022-09-16T07:21:13.830Z,90.55
2022-09-16T07:23:41.630Z,90.16
2022-09-16T07:26:11.522Z,89.18
2022-09-16T07:28:39.444Z,90.07
2022-09-16T07:31:12.173Z,88.85
2022-09-16T07:33:41.867Z,87.00
2022-09-16T07:36:11.341Z,88.36
2022-09-16T07:38:37.950Z,86.26
2022-09-16T07:41:11.393Z,86.17
2022-09-16T07:43:40.208Z,86.19
2022-09-16T07:46:07.210Z,85.17
2022-09-16T07:48:43.221Z,85.64
2022-09-16T07:51:13.473Z,84.66
2022-09-16T07:53:40.565Z,84.51
2022-09-16T07:56:09.773Z,84.72
2022-09-16T07:58:36.863Z,84.29
2022-09-16T08:01:04.715Z,83.13
2022-09-16T08:03:36.310Z,79.24
2022-09-16T08:06:05.892Z,79.32
2022-09-16T08:08:33.345Z,79.05
2022-09-16T08:11:01.157Z,79.71
2022-09-16T08:13:29.662Z,79.03
2022-09-16T08:16:00.777Z,78.75
2022-09-16T08:18:27.869Z,79.22
2022-09-16T08:20:54.309Z,78.89
2022-09-16T08:23:20.958Z,79.64
2022-09-16T08:25:47.396Z,79.81
2022-09-16T08:28:15.430Z,79.02
2022-09-16T08:30:43.219Z,79.20
2022-09-16T08:33:10.340Z,77.64
2022-09-16T08:35:36.806Z,78.08
2022-09-16T08:38:03.671Z,78.82
2022-09-16T08:40:34.668Z,78.26
2022-09-16T08:43:35.286Z,77.92
2022-09-16T08:46:25.831Z,78.29
2022-09-16T08:49:11.291Z,77.80
2022-09-16T08:51:38.042Z,76.39
2022-09-16T08:54:12.119Z,77.50
2022-09-16T08:56:41.506Z,77.60
2022-09-16T08:59:17.933Z,77.36
2022-09-16T09:02:09.421Z,77.47
2022-09-16T09:04:36.515Z,75.38
2022-09-16T09:07:38.036Z,72.71
2022-09-16T09:10:24.624Z,74.48
2022-09-16T09:13:10.222Z,74.80
2022-09-16T09:15:46.991Z,75.54
2022-09-16T09:18:37.958Z,75.29
2022-09-16T09:21:10.422Z,71.98
2022-09-16T09:24:01.899Z,71.25
2022-09-16T09:26:40.456Z,68.85
2022-09-16T09:29:23.576Z,64.51
2022-09-16T09:31:50.008Z,67.01
2022-09-16T09:34:41.018Z,70.31
2022-09-16T09:37:29.989Z,71.62
2022-09-16T09:40:09.452Z,70.69
2022-09-16T09:42:50.949Z,70.76
2022-09-16T09:45:20.365Z,71.85
2022-09-16T09:48:12.369Z,71.29
2022-09-16T09:50:45.265Z,70.92
2022-09-16T09:53:11.684Z,71.22
2022-09-16T09:55:40.813Z,69.67
2022-09-16T09:58:44.277Z,68.58
2022-09-16T10:01:11.584Z,68.02
2022-09-16T10:03:40.174Z,68.13
2022-09-16T10:06:07.367Z,67.23
2022-09-16T10:08:46.217Z,66.05
2022-09-16T10:11:22.874Z,64.30
2022-09-16T10:14:22.261Z,53.20
2022-09-16T10:16:51.851Z,49.11
2022-09-16T10:19:26.118Z,52.67
2022-09-16T10:22:16.774Z,56.77
2022-09-16T10:24:43.893Z,59.05
2022-09-16T10:27:25.536Z,60.37
2022-09-16T10:30:18.181Z,61.82
2022-09-16T10:33:11.976Z,59.13
2022-09-16T10:35:41.919Z,60.18
2022-09-16T10:38:12.549Z,61.00
2022-09-16T10:40:50.680Z,55.95
2022-09-16T10:43:17.397Z,54.01
2022-09-16T10:45:50.727Z,50.92
2022-09-16T10:48:21.186Z,51.11
2022-09-16T10:51:02.250Z,51.92
2022-09-16T10:53:39.313Z,55.67
2022-09-16T10:56:18.060Z,58.25
2022-09-16T10:59:03.733Z,59.30
2022-09-16T11:02:38.588Z,60.01
2022-09-16T11:05:26.263Z,60.54
2022-09-16T11:08:32.734Z,61.57
2022-09-16T11:14:41.047Z,62.23
2022-09-16T11:17:29.057Z,62.10
2022-09-16T11:20:14.351Z,60.99
2022-09-16T11:22:54.476Z,59.64
2022-09-16T11:25:33.765Z,58.05
2022-09-16T11:28:22.716Z,57.66
2022-09-16T11:31:29.776Z,57.03
2022-09-16T11:34:02.366Z,58.48
2022-09-16T11:37:07.697Z,59.26
2022-09-16T11:39:43.512Z,60.77
2022-09-16T11:42:25.044Z,61.23
2022-09-16T11:45:18.387Z,61.55
2022-09-16T11:48:07.731Z,61.04
2022-09-16T11:50:34.132Z,59.57
2022-09-16T11:53:07.412Z,59.87
2022-09-16T11:55:59.544Z,58.67
2022-09-16T11:58:38.473Z,59.59
2022-09-16T12:01:15.606Z,59.67
2022-09-16T12:03:58.741Z,58.52
2022-09-16T12:06:29.055Z,58.59
2022-09-16T12:09:09.076Z,54.35
2022-09-16T12:11:43.078Z,51.92
2022-09-16T12:14:22.109Z,51.57
2022-09-16T12:17:17.323Z,52.37
2022-09-16T12:19:55.417Z,52.77
2022-09-16T12:22:36.981Z,53.76
2022-09-16T12:25:17.885Z,52.49
2022-09-16T12:27:56.220Z,53.03
2022-09-16T12:30:29.585Z,52.06
2022-09-16T12:33:24.404Z,52.65
2022-09-16T12:36:02.239Z,52.73
2022-09-16T12:38:28.824Z,52.67
2022-09-16T12:41:36.804Z,52.92
2022-09-16T12:44:35.196Z,53.42
2022-09-16T12:47:23.635Z,55.42
2022-09-16T12:50:02.598Z,57.43
2022-09-16T12:52:51.293Z,58.28
2022-09-16T12:55:39.590Z,58.67
2022-09-16T12:58:26.870Z,59.58
2022-09-16T13:01:20.521Z,60.34
2022-09-16T13:03:56.171Z,60.32
2022-09-16T13:06:27.033Z,59.60
2022-09-16T13:08:54.549Z,59.40
2022-09-16T13:12:24.099Z,59.17
2022-09-16T13:14:23.206Z,55.44
2022-09-16T13:16:55.508Z,52.38
2022-09-16T13:19:40.147Z,53.68
2022-09-16T13:22:31.589Z,55.08
2022-09-16T13:25:10.905Z,55.50
2022-09-16T13:27:39.738Z,57.17
2022-09-16T13:30:26.152Z,57.92
2022-09-16T13:32:52.555Z,59.33
2022-09-16T13:35:18.970Z,58.70
2022-09-16T13:37:46.989Z,61.54
2022-09-16T13:40:22.884Z,63.53
2022-09-16T13:42:49.775Z,64.41
2022-09-16T13:46:00.543Z,64.72
2022-09-16T13:48:28.711Z,67.09
2022-09-16T13:50:58.826Z,67.90
2022-09-16T13:53:33.002Z,67.00
2022-09-16T13:56:20.508Z,67.73
2022-09-16T13:59:08.797Z,67.84
2022-09-16T14:02:13.671Z,68.33
2022-09-16T14:05:08.861Z,68.17
2022-09-16T14:07:47.511Z,67.23
2022-09-16T14:10:42.200Z,66.59
2022-09-16T14:13:20.846Z,58.98
2022-09-16T14:15:51.317Z,56.56
2022-09-16T14:18:24.262Z,56.16
2022-09-16T14:21:01.390Z,55.26
2022-09-16T14:23:29.204Z,54.44
2022-09-16T14:25:55.789Z,55.43
2022-09-16T14:28:25.304Z,55.60
2022-09-16T14:30:55.925Z,57.42
2022-09-16T14:33:45.953Z,58.55
2022-09-16T14:36:20.638Z,58.79
2022-09-16T14:39:10.611Z,60.17
2022-09-16T14:42:03.357Z,59.79
2022-09-16T14:44:47.561Z,60.98
2022-09-16T14:47:51.155Z,63.42
2022-09-16T14:50:28.091Z,63.71
2022-09-16T14:52:56.257Z,63.62
2022-09-16T14:55:29.969Z,64.60
2022-09-16T14:57:58.038Z,61.18
2022-09-16T15:00:33.588Z,63.42
2022-09-16T15:03:22.825Z,65.63
2022-09-16T15:05:49.998Z,68.19
2022-09-16T15:08:22.160Z,69.44
2022-09-16T15:10:52.900Z,69.59
2022-09-16T15:13:23.076Z,71.43
2022-09-16T15:15:54.558Z,72.49
2022-09-16T15:18:25.228Z,73.10
2022-09-16T15:20:57.116Z,73.77
2022-09-16T15:23:27.134Z,74.57
2022-09-16T15:25:57.141Z,73.90
2022-09-16T15:28:23.773Z,73.89
2022-09-16T15:30:55.452Z,74.93
2022-09-16T15:33:29.849Z,73.37
2022-09-16T15:35:59.118Z,74.58
2022-09-16T15:38:25.555Z,72.82
2022-09-16T15:41:06.058Z,72.20
2022-09-16T15:43:39.866Z,72.41
2022-09-16T15:46:16.265Z,73.71
2022-09-16T15:48:58.482Z,73.94
2022-09-16T15:51:39.002Z,73.64
2022-09-16T15:54:22.019Z,70.78
2022-09-16T15:57:03.809Z,71.98
2022-09-16T16:00:12.801Z,72.98
2022-09-16T16:02:56.157Z,71.96
2022-09-16T16:05:30.084Z,73.38
2022-09-16T16:08:03.198Z,73.10
2022-09-16T16:10:36.230Z,73.40
2022-09-16T16:13:04.814Z,72.75
2022-09-16T16:15:35.244Z,74.27
2022-09-16T16:18:06.002Z,74.31
2022-09-16T16:20:34.617Z,74.29
2022-09-16T16:23:01.701Z,73.25
2022-09-16T16:25:28.621Z,74.82
2022-09-16T16:27:55.110Z,73.35
2022-09-16T16:30:21.590Z,72.98
2022-09-16T16:32:48.664Z,74.07
2022-09-16T16:35:15.258Z,75.17
2022-09-16T16:37:46.340Z,74.41
2022-09-16T16:40:14.184Z,74.97
2022-09-16T16:42:43.058Z,74.14
2022-09-16T16:45:10.829Z,73.55
2022-09-16T16:47:37.230Z,73.63
2022-09-16T16:50:03.887Z,72.97
2022-09-16T16:52:30.335Z,72.94
2022-09-16T16:54:56.784Z,73.80
2022-09-16T16:57:23.193Z,73.12
2022-09-16T16:59:49.637Z,72.36
2022-09-16T17:02:16.153Z,73.25
2022-09-16T17:04:42.654Z,72.58
2022-09-16T17:07:25.266Z,73.58
2022-09-16T17:09:52.573Z,72.63
2022-09-16T17:12:19.008Z,73.29
2022-09-16T17:14:45.659Z,73.87
2022-09-16T17:17:12.135Z,73.28
2022-09-16T17:19:38.611Z,74.54
2022-09-16T17:22:05.159Z,75.51
2022-09-16T17:24:31.605Z,75.66
2022-09-16T17:26:58.043Z,75.30
2022-09-16T17:29:24.447Z,74.91
2022-09-16T17:31:51.239Z,74.52
2022-09-16T17:34:17.732Z,75.17
2022-09-16T17:36:46.357Z,75.84
2022-09-16T17:39:18.803Z,75.48
2022-09-16T17:41:48.558Z,74.76
2022-09-16T17:44:16.415Z,75.07
2022-09-16T17:46:43.740Z,76.33
2022-09-16T17:49:28.239Z,77.36
2022-09-16T17:51:54.803Z,77.13
2022-09-16T17:54:22.045Z,76.61
2022-09-16T17:56:48.540Z,76.05
2022-09-16T17:59:16.959Z,74.75
2022-09-16T18:01:43.508Z,74.71
2022-09-16T18:04:10.064Z,75.28
2022-09-16T18:06:42.622Z,75.36
2022-09-16T18:09:09.404Z,74.93
2022-09-16T18:11:37.194Z,74.89
2022-09-16T18:14:06.053Z,75.05
2022-09-16T18:16:32.793Z,75.72
2022-09-16T18:19:01.062Z,75.55
2022-09-16T18:21:29.610Z,75.61
2022-09-16T18:23:58.568Z,75.76
2022-09-16T18:26:25.698Z,72.15
2022-09-16T18:29:11.586Z,70.92
2022-09-16T18:31:48.758Z,71.44
2022-09-16T18:34:16.664Z,70.25
2022-09-16T18:36:43.154Z,68.23
2022-09-16T18:39:16.982Z,70.13
2022-09-16T18:41:45.081Z,69.30
2022-09-16T18:44:25.580Z,68.10
2022-09-16T18:46:53.274Z,68.22
2022-09-16T18:49:22.090Z,69.77
2022-09-16T18:51:52.023Z,69.72
2022-09-16T18:54:24.700Z,67.14
2022-09-16T18:56:52.177Z,67.65
2022-09-16T18:59:23.070Z,68.41
2022-09-16T19:01:52.794Z,68.21
2022-09-16T19:04:22.245Z,69.04
2022-09-16T19:06:51.211Z,69.53
2022-09-16T19:09:20.119Z,70.08
2022-09-16T19:11:47.606Z,69.85
2022-09-16T19:14:15.089Z,67.82
2022-09-16T19:16:43.415Z,67.83
2022-09-16T19:19:13.932Z,68.04
2022-09-16T19:21:42.058Z,68.39
2022-09-16T19:24:14.003Z,68.70
2022-09-16T19:26:41.678Z,70.94
2022-09-16T19:29:09.231Z,68.93
2022-09-16T19:31:37.957Z,69.41
2022-09-16T19:34:05.953Z,68.49
2022-09-16T19:36:34.592Z,69.25
2022-09-16T19:39:01.374Z,68.65
2022-09-16T19:41:34.850Z,68.64
2022-09-16T19:44:04.486Z,69.07
2022-09-16T19:46:37.332Z,69.89
2022-09-16T19:49:06.568Z,71.15
2022-09-16T19:51:33.386Z,70.66
2022-09-16T19:54:00.852Z,69.97
2022-09-16T19:56:30.391Z,70.83
2022-09-16T19:58:57.138Z,70.11
2022-09-16T20:01:29.442Z,73.45
2022-09-16T20:03:56.250Z,74.23
2022-09-16T20:06:25.698Z,76.28
2022-09-16T20:08:55.339Z,76.04
2022-09-16T20:11:24.192Z,75.88
2022-09-16T20:13:55.947Z,77.02
2022-09-16T20:16:24.965Z,77.32
2022-09-16T20:18:54.906Z,77.62
2022-09-16T20:21:24.109Z,77.67
2022-09-16T20:23:51.954Z,78.14
2022-09-16T20:26:19.800Z,77.90
2022-09-16T20:28:51.988Z,75.99
2022-09-16T20:31:21.878Z,77.26
2022-09-16T20:33:48.886Z,75.83
2022-09-16T20:36:17.541Z,74.50
2022-09-16T20:38:44.864Z,74.06
2022-09-16T20:41:12.712Z,74.88
2022-09-16T20:43:39.244Z,75.68
2022-09-16T20:46:09.676Z,75.03
2022-09-16T20:48:36.208Z,76.79
2022-09-16T20:51:11.467Z,77.78
2022-09-16T20:53:39.187Z,78.60
2022-09-16T20:56:09.995Z,79.98
2022-09-16T20:58:36.625Z,79.09
2022-09-16T21:01:08.611Z,80.08
2022-09-16T21:03:35.195Z,79.35
2022-09-16T21:06:07.111Z,80.24
2022-09-16T21:08:35.105Z,80.85
2022-09-16T21:11:05.833Z,80.16
2022-09-16T21:13:32.771Z,80.65
2022-09-16T21:16:00.438Z,81.56
2022-09-16T21:18:27.770Z,80.04
2022-09-16T21:21:07.817Z,80.28
2022-09-16T21:23:34.829Z,80.74
2022-09-16T21:26:03.186Z,81.50
2022-09-16T21:28:30.105Z,81.39
2022-09-16T21:31:05.190Z,81.83
2022-09-16T21:33:35.889Z,82.11
2022-09-16T21:36:07.554Z,82.27
2022-09-16T21:38:34.045Z,82.70
2022-09-16T21:41:16.086Z,85.02
2022-09-16T21:43:49.856Z,83.65
2022-09-16T21:46:20.154Z,83.95
2022-09-16T21:48:50.498Z,83.54
2022-09-16T21:51:19.573Z,84.11
2022-09-16T21:53:47.314Z,84.19
2022-09-16T21:56:17.133Z,84.04
2022-09-16T21:58:44.659Z,84.27
2022-09-16T22:01:19.505Z,83.70
2022-09-16T22:03:52.743Z,80.81
2022-09-16T22:06:19.537Z,83.19
2022-09-16T22:08:48.921Z,83.50
2022-09-16T22:11:18.273Z,83.74
2022-09-16T22:13:45.117Z,84.46
2022-09-16T22:16:27.015Z,83.42
2022-09-16T22:18:55.463Z,82.97
2022-09-16T22:21:23.489Z,83.76
2022-09-16T22:23:50.382Z,84.70
2022-09-16T22:26:19.094Z,84.97
2022-09-16T22:28:45.839Z,84.14
2022-09-16T22:31:21.993Z,84.85
2022-09-16T22:33:50.454Z,84.49
2022-09-16T22:36:19.292Z,84.16
2022-09-16T22:38:50.242Z,85.68
2022-09-16T22:41:17.553Z,84.16
2022-09-16T22:43:46.053Z,84.53
2022-09-16T22:46:16.249Z,83.76
2022-09-16T22:48:43.401Z,85.16
2022-09-16T22:51:15.002Z,85.07
2022-09-16T22:53:42.638Z,85.23
2022-09-16T22:56:18.068Z,85.93
2022-09-16T22:58:45.297Z,85.54
2022-09-16T23:01:19.935Z,85.27
2022-09-16T23:03:47.823Z,85.33
2022-09-16T23:06:15.554Z,85.49
2022-09-16T23:08:45.493Z,83.20
2022-09-16T23:11:16.253Z,83.60
2022-09-16T23:13:45.315Z,82.71
2022-09-16T23:16:17.975Z,82.54
2022-09-16T23:18:46.033Z,82.12
2022-09-16T23:21:17.024Z,82.68
2022-09-16T23:23:48.023Z,83.25
2022-09-16T23:26:18.071Z,83.48
2022-09-16T23:28:45.568Z,85.08
2022-09-16T23:31:14.630Z,85.18
2022-09-16T23:33:42.050Z,84.82
2022-09-16T23:36:14.132Z,85.12
2022-09-16T23:38:42.309Z,85.06
2022-09-16T23:41:11.336Z,84.66
2022-09-16T23:43:38.911Z,84.81
2022-09-16T23:46:06.701Z,82.94
2022-09-16T23:48:35.066Z,83.10
2022-09-16T23:51:02.073Z,80.04
2022-09-16T23:53:28.763Z,80.38
2022-09-16T23:55:55.556Z,80.34
2022-09-16T23:58:22.118Z,80.73
